createdAt,value
2018-01-04T00:00:36.702Z,6.50
2018-01-04T00:03:04.142Z,6.40
2018-01-04T00:05:31.596Z,6.40
2018-01-04T00:07:59.108Z,6.40
2018-01-04T00:10:26.934Z,6.40
2018-01-04T00:12:54.393Z,6.40
2018-01-04T00:15:21.834Z,6.50
2018-01-04T00:17:49.296Z,6.40
2018-01-04T00:20:16.747Z,6.40
2018-01-04T00:22:44.187Z,6.40
2018-01-04T00:25:11.655Z,6.40
2018-01-04T00:27:39.078Z,6.50
2018-01-04T00:30:07.315Z,6.50
2018-01-04T00:32:34.747Z,6.50
2018-01-04T00:35:02.191Z,6.50
2018-01-04T00:37:29.622Z,6.60
2018-01-04T00:39:57.068Z,6.70
2018-01-04T00:42:25.267Z,6.70
2018-01-04T00:44:52.710Z,6.70
2018-01-04T00:47:20.155Z,6.70
2018-01-04T00:49:48.367Z,6.70
2018-01-04T00:52:15.794Z,6.70
2018-01-04T00:54:43.243Z,6.70
2018-01-04T00:57:11.462Z,6.70
2018-01-04T00:59:38.904Z,6.70
2018-01-04T01:02:06.335Z,6.80
2018-01-04T01:04:34.740Z,6.80
2018-01-04T01:07:02.160Z,6.80
2018-01-04T01:09:30.379Z,6.70
2018-01-04T01:11:57.819Z,6.70
2018-01-04T01:14:25.259Z,6.70
2018-01-04T01:16:52.698Z,6.80
2018-01-04T01:19:20.903Z,6.70
2018-01-04T01:21:48.344Z,6.70
2018-01-04T01:24:16.550Z,6.70
2018-01-04T01:26:43.986Z,6.70
2018-01-04T01:29:11.441Z,6.70
2018-01-04T01:31:39.639Z,6.60
2018-01-04T01:34:07.091Z,6.60
2018-01-04T01:36:34.539Z,6.50
2018-01-04T01:39:02.005Z,6.50
2018-01-04T01:41:29.446Z,6.50
2018-01-04T01:43:56.890Z,6.40
2018-01-04T01:46:24.331Z,6.40
2018-01-04T01:49:19.389Z,6.40
2018-01-04T01:51:46.824Z,6.40
2018-01-04T01:54:14.282Z,6.40
2018-01-04T01:56:41.711Z,6.40
2018-01-04T01:59:09.937Z,6.30
2018-01-04T02:01:37.367Z,6.30
2018-01-04T02:04:04.824Z,6.30
2018-01-04T02:06:32.263Z,6.30
2018-01-04T02:09:00.484Z,6.40
2018-01-04T02:11:28.634Z,6.30
2018-01-04T02:13:56.332Z,6.40
2018-01-04T02:16:23.883Z,6.50
2018-01-04T02:19:03.197Z,6.50
2018-01-04T02:21:42.633Z,6.50
2018-01-04T02:24:22.088Z,6.50
2018-01-04T02:27:01.630Z,6.60
2018-01-04T02:29:40.968Z,6.60
2018-01-04T02:32:20.214Z,6.60
2018-01-04T02:34:57.562Z,6.70
2018-01-04T02:37:36.889Z,6.60
2018-01-04T02:40:16.235Z,6.70
2018-01-04T02:42:55.519Z,6.70
2018-01-04T02:45:47.728Z,6.60
2018-01-04T02:48:15.215Z,6.60
2018-01-04T02:50:42.663Z,6.60
2018-01-04T02:53:10.098Z,6.60
2018-01-04T02:55:37.544Z,6.60
2018-01-04T02:58:04.996Z,6.60
2018-01-04T03:00:32.462Z,6.70
2018-01-04T03:02:59.924Z,6.70
2018-01-04T03:05:27.362Z,6.70
2018-01-04T03:07:54.812Z,6.80
2018-01-04T03:10:22.238Z,6.80
2018-01-04T03:12:50.499Z,6.80
2018-01-04T03:15:17.939Z,6.80
2018-01-04T03:17:46.091Z,6.80
2018-01-04T03:20:13.526Z,6.80
2018-01-04T03:22:46.721Z,6.80
2018-01-04T03:25:19.947Z,6.90
2018-01-04T03:41:25.661Z,6.90
2018-01-04T03:43:59.005Z,6.90
2018-01-04T03:46:32.602Z,6.90
2018-01-04T03:49:05.950Z,6.90
2018-01-04T03:51:39.120Z,6.90
2018-01-04T03:54:12.726Z,6.90
2018-01-04T03:56:46.420Z,6.90
2018-01-04T03:59:19.622Z,6.90
2018-01-04T04:02:05.844Z,6.90
2018-01-04T04:04:39.126Z,6.80
2018-01-04T04:07:12.495Z,6.80
2018-01-04T04:09:40.066Z,6.70
2018-01-04T04:12:07.488Z,6.60
2018-01-04T04:14:35.931Z,6.60
2018-01-04T04:17:03.650Z,6.60
2018-01-04T04:19:31.091Z,6.60
2018-01-04T04:21:59.527Z,6.60
2018-01-04T04:24:27.365Z,6.60
2018-01-04T04:26:55.010Z,6.60
2018-01-04T04:29:22.783Z,6.60
2018-01-04T04:31:50.210Z,6.60
2018-01-04T04:34:18.634Z,6.70
2018-01-04T04:36:46.206Z,6.70
2018-01-04T04:39:13.878Z,6.70
2018-01-04T04:41:41.427Z,6.70
2018-01-04T04:44:08.875Z,6.70
2018-01-04T04:46:36.958Z,6.70
2018-01-04T04:49:04.718Z,6.70
2018-01-04T04:51:32.482Z,6.70
2018-01-04T04:53:59.934Z,6.80
2018-01-04T04:56:27.705Z,6.90
2018-01-04T04:58:55.164Z,6.80
2018-01-04T05:01:22.590Z,6.80
2018-01-04T05:03:50.263Z,6.80
2018-01-04T05:06:17.838Z,6.90
2018-01-04T05:08:45.302Z,6.80
2018-01-04T05:11:13.232Z,6.80
2018-01-04T05:13:40.694Z,6.80
2018-01-04T05:16:08.283Z,6.80
2018-01-04T05:18:35.958Z,6.80
2018-01-04T05:21:03.398Z,6.80
2018-01-04T05:23:31.272Z,6.80
2018-01-04T05:25:58.707Z,6.80
2018-01-04T05:28:26.807Z,6.80
2018-01-04T05:30:54.241Z,6.90
2018-01-04T05:33:21.921Z,6.80
2018-01-04T05:35:49.393Z,6.70
2018-01-04T05:38:17.016Z,6.80
2018-01-04T05:40:44.698Z,6.80
2018-01-04T05:43:12.359Z,6.80
2018-01-04T05:45:39.804Z,6.70
2018-01-04T05:48:07.234Z,6.70
2018-01-04T05:50:34.712Z,6.70
2018-01-04T05:53:02.195Z,6.70
2018-01-04T05:55:29.658Z,6.80
2018-01-04T05:57:57.511Z,6.70
2018-01-04T06:00:25.275Z,6.80
2018-01-04T06:02:53.465Z,6.80
2018-01-04T06:05:21.413Z,6.80
2018-01-04T06:07:48.858Z,6.80
2018-01-04T06:10:16.558Z,6.70
2018-01-04T06:12:44.267Z,6.70
2018-01-04T06:15:12.171Z,6.70
2018-01-04T06:17:40.242Z,6.70
2018-01-04T06:20:07.692Z,6.60
2018-01-04T06:22:36.382Z,6.60
2018-01-04T06:25:03.810Z,6.60
2018-01-04T06:27:31.520Z,6.60
2018-01-04T06:29:59.375Z,6.70
2018-01-04T06:32:26.831Z,6.70
2018-01-04T06:34:54.902Z,6.70
2018-01-04T06:37:22.353Z,6.70
2018-01-04T06:39:49.808Z,6.60
2018-01-04T06:42:17.578Z,6.60
2018-01-04T06:44:45.203Z,6.50
2018-01-04T06:47:12.798Z,6.50
2018-01-04T06:49:40.337Z,6.50
2018-01-04T06:52:07.892Z,6.50
2018-01-04T06:54:35.480Z,6.50
2018-01-04T06:57:03.166Z,6.40
2018-01-04T06:59:30.606Z,6.40
2018-01-04T07:01:58.466Z,6.40
2018-01-04T07:04:26.229Z,6.40
2018-01-04T07:06:53.975Z,6.30
2018-01-04T07:09:22.058Z,6.30
2018-01-04T07:11:49.696Z,6.40
2018-01-04T07:14:17.290Z,6.40
2018-01-04T07:16:45.531Z,6.40
2018-01-04T07:19:13.090Z,6.30
2018-01-04T07:21:40.582Z,6.40
2018-01-04T07:24:08.018Z,6.40
2018-01-04T07:26:35.798Z,6.30
2018-01-04T07:29:03.625Z,6.30
2018-01-04T07:31:31.007Z,6.30
2018-01-04T07:33:58.702Z,6.20
2018-01-04T07:36:26.286Z,6.20
2018-01-04T07:38:53.831Z,6.30
2018-01-04T07:41:21.781Z,6.30
2018-01-04T07:43:49.220Z,6.30
2018-01-04T07:46:16.845Z,6.30
2018-01-04T07:48:44.391Z,6.30
2018-01-04T07:51:11.856Z,6.40
2018-01-04T07:53:39.675Z,6.30
2018-01-04T07:56:07.443Z,6.40
2018-01-04T07:58:35.072Z,6.40
2018-01-04T08:01:03.478Z,6.30
2018-01-04T08:03:31.027Z,6.30
2018-01-04T08:05:58.470Z,6.30
2018-01-04T08:08:25.906Z,6.30
2018-01-04T08:10:53.350Z,6.30
2018-01-04T08:13:20.783Z,6.30
2018-01-04T08:15:48.631Z,6.30
2018-01-04T08:18:16.277Z,6.30
2018-01-04T08:20:44.043Z,6.30
2018-01-04T08:23:11.615Z,6.30
2018-01-04T08:25:39.359Z,6.40
2018-01-04T08:28:07.050Z,6.40
2018-01-04T08:30:34.875Z,6.40
2018-01-04T08:33:02.535Z,6.50
2018-01-04T08:35:30.491Z,6.50
2018-01-04T08:37:57.928Z,6.50
2018-01-04T08:40:25.534Z,6.50
2018-01-04T08:42:52.986Z,6.50
2018-01-04T08:45:20.430Z,6.50
2018-01-04T08:47:48.027Z,6.50
2018-01-04T08:50:15.711Z,6.60
2018-01-04T08:52:43.558Z,6.60
2018-01-04T08:55:11.015Z,6.70
2018-01-04T08:57:38.678Z,6.70
2018-01-04T09:00:06.150Z,6.70
2018-01-04T09:02:33.860Z,6.70
2018-01-04T09:05:02.375Z,6.60
2018-01-04T09:07:31.068Z,6.60
2018-01-04T09:09:58.803Z,6.60
2018-01-04T09:12:26.237Z,6.60
2018-01-04T09:14:54.062Z,6.60
2018-01-04T09:17:21.494Z,6.70
2018-01-04T09:19:49.270Z,6.70
2018-01-04T09:22:17.202Z,6.70
2018-01-04T09:24:44.667Z,6.70
2018-01-04T09:27:12.260Z,6.70
2018-01-04T09:29:39.710Z,6.70
2018-01-04T09:32:07.455Z,6.80
2018-01-04T09:34:35.148Z,6.70
2018-01-04T09:37:02.703Z,6.80
2018-01-04T09:39:31.078Z,6.80
2018-01-04T09:41:59.142Z,6.80
2018-01-04T09:44:26.914Z,6.80
2018-01-04T09:46:54.370Z,6.90
2018-01-04T09:49:22.003Z,6.80
2018-01-04T09:51:49.505Z,6.90
2018-01-04T09:54:17.221Z,6.90
2018-01-04T09:56:44.710Z,7.00
2018-01-04T09:59:12.151Z,6.90
2018-01-04T10:01:39.598Z,6.90
2018-01-04T10:04:07.067Z,6.90
2018-01-04T10:06:34.599Z,7.00
2018-01-04T10:09:02.407Z,7.00
2018-01-04T10:11:30.155Z,7.10
2018-01-04T10:13:57.810Z,7.10
2018-01-04T10:16:25.254Z,7.20
2018-01-04T10:18:53.159Z,7.20
2018-01-04T10:21:20.611Z,7.20
2018-01-04T10:23:48.375Z,7.20
2018-01-04T10:26:16.119Z,7.20
2018-01-04T10:28:43.559Z,7.30
2018-01-04T10:31:11.230Z,7.30
2018-01-04T10:33:38.686Z,7.30
2018-01-04T10:36:06.199Z,7.30
2018-01-04T10:38:33.872Z,7.30
2018-01-04T10:41:01.415Z,7.30
2018-01-04T10:43:29.128Z,7.30
2018-01-04T10:45:56.571Z,7.40
2018-01-04T10:48:24.126Z,7.30
2018-01-04T10:50:51.921Z,7.30
2018-01-04T10:53:19.396Z,7.30
2018-01-04T10:55:46.870Z,7.30
2018-01-04T10:58:14.518Z,7.30
2018-01-04T11:00:42.382Z,7.30
2018-01-04T11:03:09.846Z,7.30
2018-01-04T11:05:37.304Z,7.30
2018-01-04T11:08:05.064Z,7.40
2018-01-04T11:10:32.829Z,7.40
2018-01-04T11:13:00.480Z,7.40
2018-01-04T11:15:28.242Z,7.30
2018-01-04T11:17:55.990Z,7.40
2018-01-04T11:20:24.186Z,7.40
2018-01-04T11:22:52.263Z,7.50
2018-01-04T11:25:19.733Z,7.50
2018-01-04T11:27:47.346Z,7.50
2018-01-04T11:30:14.858Z,7.60
2018-01-04T11:32:42.304Z,7.60
2018-01-04T11:35:09.730Z,7.70
2018-01-04T11:37:37.315Z,7.70
2018-01-04T11:40:05.381Z,7.80
2018-01-04T11:42:33.499Z,7.80
2018-01-04T11:45:01.096Z,7.80
2018-01-04T11:47:28.935Z,7.90
2018-01-04T11:49:56.372Z,8.00
2018-01-04T11:52:24.207Z,7.80
2018-01-04T11:54:51.666Z,7.80
2018-01-04T11:57:19.308Z,7.80
2018-01-04T11:59:46.927Z,7.80
2018-01-04T12:02:14.643Z,7.80
2018-01-04T12:04:42.411Z,7.80
2018-01-04T12:07:10.045Z,7.70
2018-01-04T12:09:37.473Z,7.70
2018-01-04T12:12:06.323Z,7.70
2018-01-04T12:14:34.076Z,7.70
2018-01-04T12:17:02.156Z,7.60
2018-01-04T12:19:29.889Z,7.70
2018-01-04T12:21:57.853Z,7.70
2018-01-04T12:24:25.343Z,7.70
2018-01-04T12:26:52.911Z,7.70
2018-01-04T12:29:20.567Z,7.80
2018-01-04T12:31:48.014Z,7.80
2018-01-04T12:34:15.470Z,8.00
2018-01-04T12:36:42.913Z,8.00
2018-01-04T12:39:10.378Z,8.00
2018-01-04T12:41:38.258Z,8.00
2018-01-04T12:44:05.791Z,8.00
2018-01-04T12:46:33.790Z,8.00
2018-01-04T12:49:01.415Z,7.90
2018-01-04T12:51:29.195Z,8.00
2018-01-04T12:53:56.655Z,8.00
2018-01-04T12:56:24.540Z,8.00
2018-01-04T12:58:52.166Z,8.10
2018-01-04T13:01:19.762Z,8.00
2018-01-04T13:03:47.834Z,8.10
2018-01-04T13:06:15.278Z,8.10
2018-01-04T13:08:43.058Z,8.20
2018-01-04T13:11:11.011Z,8.20
2018-01-04T13:13:38.578Z,8.20
2018-01-04T13:16:06.324Z,8.30
2018-01-04T13:18:34.115Z,8.30
2018-01-04T13:21:01.550Z,8.30
2018-01-04T13:23:29.203Z,8.30
2018-01-04T13:25:56.655Z,8.30
2018-01-04T13:28:24.115Z,8.30
2018-01-04T13:30:51.582Z,8.40
2018-01-04T13:33:19.026Z,8.40
2018-01-04T13:35:46.623Z,8.40
2018-01-04T13:38:14.388Z,8.30
2018-01-04T13:40:42.328Z,8.30
2018-01-04T13:43:09.802Z,8.30
2018-01-04T13:45:37.681Z,8.30
2018-01-04T13:48:05.446Z,8.20
2018-01-04T13:50:33.204Z,8.20
2018-01-04T13:53:00.659Z,8.30
2018-01-04T13:55:28.725Z,8.20
2018-01-04T13:57:56.386Z,8.30
2018-01-04T14:00:23.832Z,8.00
2018-01-04T14:02:51.330Z,7.90
2018-01-04T14:05:19.173Z,7.90
2018-01-04T14:07:46.618Z,7.70
2018-01-04T14:10:14.350Z,7.60
2018-01-04T14:12:42.111Z,7.60
2018-01-04T14:15:09.673Z,7.50
2018-01-04T14:17:37.259Z,7.50
2018-01-04T14:20:06.000Z,7.60
2018-01-04T14:22:33.712Z,7.60
2018-01-04T14:25:01.228Z,7.60
2018-01-04T14:27:28.924Z,7.60
2018-01-04T14:29:56.509Z,7.60
2018-01-04T14:32:24.145Z,7.50
2018-01-04T14:34:51.585Z,7.50
2018-01-04T14:37:19.499Z,7.50
2018-01-04T14:39:47.107Z,7.60
2018-01-04T14:42:15.319Z,7.60
2018-01-04T14:44:42.983Z,7.60
2018-01-04T14:47:10.575Z,7.60
2018-01-04T14:49:38.034Z,7.60
2018-01-04T14:52:05.780Z,7.60
2018-01-04T14:54:33.538Z,7.50
2018-01-04T14:57:00.995Z,7.50
2018-01-04T14:59:29.074Z,7.40
2018-01-04T15:01:56.522Z,7.40
2018-01-04T15:04:24.182Z,7.30
2018-01-04T15:06:52.059Z,7.30
2018-01-04T15:09:19.699Z,7.20
2018-01-04T15:11:48.214Z,7.10
2018-01-04T15:14:15.858Z,7.00
2018-01-04T15:16:43.293Z,7.00
2018-01-04T15:19:10.734Z,6.90
2018-01-04T15:21:38.333Z,6.80
2018-01-04T15:24:06.096Z,6.80
2018-01-04T15:26:33.764Z,6.90
2018-01-04T15:29:01.194Z,6.80
2018-01-04T15:31:28.995Z,6.90
2018-01-04T15:33:56.851Z,6.90
2018-01-04T15:36:24.318Z,6.90
2018-01-04T15:38:51.774Z,6.90
2018-01-04T15:41:19.391Z,6.90
2018-01-04T15:43:46.838Z,6.80
2018-01-04T15:46:14.306Z,6.80
2018-01-04T15:48:42.590Z,6.70
2018-01-04T15:51:10.375Z,6.70
2018-01-04T15:53:38.039Z,6.70
2018-01-04T15:56:06.210Z,6.60
2018-01-04T15:58:33.869Z,6.60
2018-01-04T16:01:01.566Z,6.60
2018-01-04T16:03:30.186Z,6.60
2018-01-04T16:05:57.779Z,6.60
2018-01-04T16:08:25.256Z,6.60
2018-01-04T16:10:52.690Z,6.70
2018-01-04T16:13:20.336Z,6.60
2018-01-04T16:15:48.222Z,6.60
2018-01-04T16:18:15.978Z,6.60
2018-01-04T16:20:43.562Z,6.60
2018-01-04T16:23:11.110Z,6.50
2018-01-04T16:25:38.563Z,6.50
2018-01-04T16:28:06.044Z,6.50
2018-01-04T16:30:33.750Z,6.50
2018-01-04T16:33:01.645Z,6.60
2018-01-04T16:35:29.074Z,6.40
2018-01-04T16:37:56.540Z,6.50
2018-01-04T16:40:24.082Z,6.50
2018-01-04T16:42:51.726Z,6.50
2018-01-04T16:45:21.031Z,6.40
2018-01-04T16:47:48.844Z,6.40
2018-01-04T16:50:16.506Z,6.40
2018-01-04T16:52:43.983Z,6.40
2018-01-04T16:55:11.525Z,6.50
2018-01-04T16:57:39.202Z,6.40
2018-01-04T17:00:06.751Z,6.50
2018-01-04T17:02:34.202Z,6.40
2018-01-04T17:05:01.970Z,6.40
2018-01-04T17:07:30.043Z,6.40
2018-01-04T17:09:57.481Z,6.40
2018-01-04T17:12:25.178Z,6.50
2018-01-04T17:14:52.633Z,6.40
2018-01-04T17:17:20.079Z,6.50
2018-01-04T17:19:47.843Z,6.50
2018-01-04T17:22:15.407Z,6.50
2018-01-04T17:24:43.154Z,6.60
2018-01-04T17:27:10.811Z,6.70
2018-01-04T17:29:38.388Z,6.70
2018-01-04T17:32:06.027Z,6.80
2018-01-04T17:34:33.777Z,6.90
2018-01-04T17:37:01.683Z,7.00
2018-01-04T17:39:29.487Z,7.10
2018-01-04T17:41:56.882Z,7.20
2018-01-04T17:44:24.662Z,7.30
2018-01-04T17:46:52.426Z,7.30
2018-01-04T17:49:19.870Z,7.40
2018-01-04T17:51:47.958Z,7.40
2018-01-04T17:54:15.555Z,7.50
2018-01-04T17:56:44.098Z,7.60
2018-01-04T17:59:11.862Z,7.60
2018-01-04T18:01:39.491Z,7.60
2018-01-04T18:04:07.254Z,7.60
2018-01-04T18:06:34.719Z,7.60
2018-01-04T18:09:02.948Z,7.80
2018-01-04T18:11:30.682Z,7.70
2018-01-04T18:13:58.327Z,7.80
2018-01-04T18:16:25.773Z,7.80
2018-01-04T18:18:53.671Z,7.80
2018-01-04T18:21:21.178Z,7.90
2018-01-04T18:23:49.110Z,7.90
2018-01-04T18:26:16.985Z,7.90
2018-01-04T18:28:44.731Z,7.90
2018-01-04T18:31:12.473Z,8.00
2018-01-04T18:33:40.151Z,8.10
2018-01-04T18:36:07.711Z,8.00
2018-01-04T18:38:35.786Z,8.10
2018-01-04T18:41:03.558Z,8.10
2018-01-04T18:43:31.226Z,8.20
2018-01-04T18:45:58.774Z,8.20
2018-01-04T18:48:26.422Z,8.20
2018-01-04T18:50:54.221Z,8.20
2018-01-04T18:53:22.065Z,8.30
2018-01-04T18:55:49.503Z,8.30
2018-01-04T18:58:16.995Z,8.30
2018-01-04T19:00:44.652Z,8.40
2018-01-04T19:03:12.398Z,8.40
2018-01-04T19:05:40.270Z,8.40
2018-01-04T19:08:07.989Z,8.50
2018-01-04T19:10:35.722Z,8.60
2018-01-04T19:13:03.171Z,8.60
2018-01-04T19:15:30.627Z,8.70
2018-01-04T19:17:58.473Z,8.70
2018-01-04T19:20:26.115Z,8.70
2018-01-04T19:22:53.866Z,8.80
2018-01-04T19:25:21.662Z,8.80
2018-01-04T19:27:49.227Z,8.90
2018-01-04T19:30:16.670Z,8.90
2018-01-04T19:32:44.243Z,8.90
2018-01-04T19:35:11.747Z,8.90
2018-01-04T19:37:40.150Z,8.90
2018-01-04T19:40:07.671Z,9.00
2018-01-04T19:42:36.021Z,9.00
2018-01-04T19:45:03.578Z,9.00
2018-01-04T19:47:31.343Z,9.00
2018-01-04T19:49:58.794Z,9.00
2018-01-04T19:52:26.231Z,9.10
2018-01-04T19:54:53.922Z,9.30
2018-01-04T19:57:21.379Z,9.30
2018-01-04T19:59:49.242Z,9.30
2018-01-04T20:02:17.205Z,9.30
2018-01-04T20:04:44.886Z,9.30
2018-01-04T20:07:12.543Z,9.20
2018-01-04T20:09:40.183Z,9.10
2018-01-04T20:12:07.763Z,9.10
2018-01-04T20:14:35.224Z,9.10
2018-01-04T20:17:02.675Z,9.10
2018-01-04T20:19:30.742Z,9.10
2018-01-04T20:21:58.184Z,9.00
2018-01-04T20:24:25.968Z,9.00
2018-01-04T20:26:53.737Z,9.10
2018-01-04T20:29:21.227Z,9.10
2018-01-04T20:31:49.075Z,9.20
2018-01-04T20:34:16.814Z,9.20
2018-01-04T20:36:44.474Z,9.20
2018-01-04T20:39:12.243Z,9.20
2018-01-04T20:41:39.704Z,9.30
2018-01-04T20:44:07.463Z,9.10
2018-01-04T20:46:35.535Z,9.10
2018-01-04T20:49:03.243Z,9.10
2018-01-04T20:51:30.971Z,9.10
2018-01-04T20:53:58.695Z,9.20
2018-01-04T20:56:26.134Z,9.10
2018-01-04T20:58:54.853Z,9.00
2018-01-04T21:01:22.299Z,9.10
2018-01-04T21:03:50.058Z,9.10
2018-01-04T21:06:17.649Z,9.10
2018-01-04T21:08:45.422Z,9.10
2018-01-04T21:11:12.855Z,9.10
2018-01-04T21:13:40.634Z,9.10
2018-01-04T21:16:08.080Z,9.10
2018-01-04T21:18:35.855Z,9.10
2018-01-04T21:21:03.619Z,9.10
2018-01-04T21:23:31.065Z,9.10
2018-01-04T21:25:58.838Z,9.10
2018-01-04T21:28:26.607Z,9.10
2018-01-04T21:30:54.051Z,9.10
2018-01-04T21:33:21.494Z,9.00
2018-01-04T21:35:49.278Z,9.00
2018-01-04T21:38:16.989Z,9.00
2018-01-04T21:40:44.814Z,8.90
2018-01-04T21:43:12.582Z,8.90
2018-01-04T21:45:40.019Z,8.90
2018-01-04T21:48:07.693Z,8.90
2018-01-04T21:50:35.135Z,8.90
2018-01-04T21:53:02.898Z,8.80
2018-01-04T21:55:30.342Z,8.80
2018-01-04T21:57:58.006Z,8.80
2018-01-04T22:00:25.894Z,8.80
2018-01-04T22:02:53.472Z,8.80
2018-01-04T22:05:21.230Z,8.80
2018-01-04T22:07:48.667Z,8.80
2018-01-04T22:10:16.759Z,8.80
2018-01-04T22:12:44.192Z,8.70
2018-01-04T22:15:11.970Z,8.70
2018-01-04T22:17:39.603Z,8.70
2018-01-04T22:20:07.093Z,8.70
2018-01-04T22:22:34.646Z,8.70
2018-01-04T22:25:02.291Z,8.70
2018-01-04T22:27:29.874Z,8.70
2018-01-04T22:29:57.518Z,8.70
2018-01-04T22:32:24.999Z,8.50
2018-01-04T22:34:53.363Z,8.30
2018-01-04T22:37:20.926Z,8.40
2018-01-04T22:39:48.666Z,8.30
2018-01-04T22:42:16.305Z,8.30
2018-01-04T22:44:44.526Z,8.30
2018-01-04T22:47:12.483Z,8.20
2018-01-04T22:49:39.970Z,8.20
2018-01-04T22:52:07.470Z,8.30
2018-01-04T22:54:35.188Z,8.20
2018-01-04T22:57:02.630Z,8.20
2018-01-04T22:59:30.103Z,8.20
2018-01-04T23:01:57.962Z,8.10
2018-01-04T23:04:26.038Z,8.00
2018-01-04T23:06:53.847Z,7.90
2018-01-04T23:09:21.286Z,7.90
2018-01-04T23:11:49.024Z,7.80
2018-01-04T23:14:16.783Z,7.70
2018-01-04T23:16:44.535Z,7.60
2018-01-04T23:19:12.177Z,7.60
2018-01-04T23:21:39.756Z,7.60
2018-01-04T23:24:07.397Z,7.60
2018-01-04T23:26:34.843Z,7.70
2018-01-04T23:29:03.226Z,7.70
2018-01-04T23:31:30.716Z,7.70
2018-01-04T23:33:58.154Z,7.80
2018-01-04T23:36:25.592Z,7.80
2018-01-04T23:38:54.019Z,7.80
2018-01-04T23:41:21.782Z,7.80
2018-01-04T23:43:49.296Z,7.70
2018-01-04T23:46:16.974Z,7.70
2018-01-04T23:48:44.468Z,7.70
2018-01-04T23:51:12.217Z,7.70
2018-01-04T23:53:39.656Z,7.70
2018-01-04T23:56:07.159Z,7.70
2018-01-04T23:58:34.997Z,7.70
